Time;durP1;ratioP1;P1;durP2;ratioP2;P2;SDS_P1;SDS_P2;PMS_P1;PMS_P2;Temp;Humidity;BMP_temperature;BMP_pressure;BME280_temperature;BME280_humidity;BME280_pressure;Samples;Min_cycle;Max_cycle;Signal;HPM_P1;HPM_P2
2022/09/20 00:01:40;;;;;;;11.45;1.98;;;;;;;11.20;100.00;102073.19;4978575;28;20068;-81
2022/09/20 00:04:09;;;;;;;11.48;2.15;;;;;;;11.20;100.00;102070.56;4978466;28;20502;-81
2022/09/20 00:06:37;;;;;;;7.70;1.67;;;;;;;11.18;100.00;102072.28;5027722;28;20033;-81
2022/09/20 00:09:06;;;;;;;10.43;1.73;;;;;;;11.15;100.00;102078.34;5001814;28;20055;-81
2022/09/20 00:11:35;;;;;;;6.10;2.13;;;;;;;11.11;100.00;102085.34;5013293;28;20246;-81
2022/09/20 00:14:07;;;;;;;7.43;1.90;;;;;;;11.10;100.00;102087.94;5006914;28;20042;-81
2022/09/20 00:16:39;;;;;;;9.27;2.35;;;;;;;11.08;100.00;102087.03;4992824;28;20053;-81
2022/09/20 00:19:17;;;;;;;6.55;2.15;;;;;;;11.05;100.00;102079.91;4971997;28;20057;-81
2022/09/20 00:21:46;;;;;;;9.57;2.53;;;;;;;11.03;100.00;102080.75;5010872;28;20072;-81
2022/09/20 00:24:15;;;;;;;7.88;1.98;;;;;;;11.03;100.00;102080.75;4994274;28;20026;-80
2022/09/20 00:26:43;;;;;;;5.25;1.58;;;;;;;11.02;100.00;102081.59;4990014;28;20060;-81
2022/09/20 00:29:12;;;;;;;9.30;1.60;;;;;;;11.02;100.00;102085.16;5012314;28;20045;-81
2022/09/20 00:31:41;;;;;;;7.82;1.67;;;;;;;11.02;100.00;102078.97;5032847;28;20715;-81
2022/09/20 00:36:58;;;;;;;8.60;1.95;;;;;;;11.03;100.00;102093.94;5031872;28;20049;-80
2022/09/20 00:39:26;;;;;;;8.63;2.08;;;;;;;11.03;100.00;102088.66;4963320;28;20056;-80
2022/09/20 00:41:55;;;;;;;9.48;1.90;;;;;;;11.04;100.00;102093.06;5031607;28;20061;-81
2022/09/20 00:44:44;;;;;;;6.60;2.08;;;;;;;11.03;100.00;102086.91;5025605;28;20034;-81
2022/09/20 00:47:23;;;;;;;6.65;1.83;;;;;;;11.05;100.00;102089.59;5015979;28;20060;-81
2022/09/20 00:49:57;;;;;;;7.80;1.52;;;;;;;11.04;100.00;102083.44;4994806;28;20053;-81
2022/09/20 00:52:27;;;;;;;7.32;2.40;;;;;;;11.03;100.00;102086.91;4980559;28;20044;-81
2022/09/20 00:54:57;;;;;;;6.00;1.48;;;;;;;10.99;100.00;102089.47;5020618;28;20049;-81
2022/09/20 00:57:26;;;;;;;6.93;1.53;;;;;;;10.93;100.00;102096.38;4966963;28;20053;-81
2022/09/20 00:59:55;;;;;;;13.27;2.20;;;;;;;10.88;100.00;102098.03;5027658;28;20639;-81
2022/09/20 01:02:28;;;;;;;4.50;1.35;;;;;;;10.86;100.00;102094.47;5015538;28;20061;-81
2022/09/20 01:04:58;;;;;;;6.50;1.38;;;;;;;10.84;100.00;102105.84;5018070;28;20055;-82
2022/09/20 01:07:27;;;;;;;6.95;1.40;;;;;;;10.82;100.00;102104.94;4985276;28;20053;-81
2022/09/20 01:09:56;;;;;;;3.60;1.38;;;;;;;10.81;100.00;102098.78;5016480;28;20049;-82
2022/09/20 01:12:33;;;;;;;4.38;0.80;;;;;;;10.83;100.00;102099.69;4997674;28;20037;-81
2022/09/20 01:15:06;;;;;;;3.55;1.45;;;;;;;10.86;100.00;102094.47;5037490;28;20054;-81
2022/09/20 01:17:38;;;;;;;8.55;2.08;;;;;;;10.89;100.00;102099.81;5007228;28;20287;-81
2022/09/20 01:20:27;;;;;;;10.45;2.63;;;;;;;10.90;100.00;102096.31;5033735;28;20096;-80
2022/09/20 01:23:27;;;;;;;5.07;1.52;;;;;;;10.91;100.00;102092.81;5021230;28;20049;-82
2022/09/20 01:26:08;;;;;;;6.10;1.38;;;;;;;10.92;100.00;102099.84;5016473;28;20046;-82
2022/09/20 01:28:41;;;;;;;8.13;1.85;;;;;;;10.95;100.00;102099.06;5015519;28;20053;-82
2022/09/20 01:31:24;;;;;;;6.43;1.25;;;;;;;10.96;100.00;102095.53;5029622;28;20041;-82
2022/09/20 01:34:10;;;;;;;7.07;1.42;;;;;;;10.96;100.00;102095.53;5034014;28;20046;-82
2022/09/20 01:36:45;;;;;;;5.85;1.33;;;;;;;10.98;100.00;102100.84;4978817;28;20045;-81
2022/09/20 01:39:16;;;;;;;7.57;1.45;;;;;;;10.99;100.00;102093.00;5014226;28;20045;-80
2022/09/20 01:41:56;;;;;;;2.92;1.20;;;;;;;11.01;100.00;102093.03;4993599;28;20048;-80
2022/09/20 01:44:53;;;;;;;3.70;0.98;;;;;;;11.00;100.00;102093.88;4975559;28;20053;-81
2022/09/20 01:47:40;;;;;;;4.43;1.13;;;;;;;10.98;100.00;102096.47;5007655;28;20053;-81
2022/09/20 01:50:30;;;;;;;3.55;1.08;;;;;;;10.97;100.00;102093.81;5030577;28;20042;-81
2022/09/20 01:53:37;;;;;;;6.10;1.08;;;;;;;10.90;100.00;102096.31;4983529;28;20038;-81
2022/09/20 01:56:46;;;;;;;5.05;1.52;;;;;;;10.87;100.00;102092.75;4983910;28;20049;-81
2022/09/20 01:59:35;;;;;;;8.80;1.52;;;;;;;10.82;100.00;102089.97;5010892;28;20046;-81
2022/09/20 02:02:08;;;;;;;5.25;1.20;;;;;;;10.80;100.00;102081.16;5013455;28;20041;-81
2022/09/20 02:04:55;;;;;;;5.95;1.80;;;;;;;10.78;100.00;102088.13;5016447;28;20167;-81
2022/09/20 02:07:48;;;;;;;1.88;1.02;;;;;;;10.78;100.00;102077.59;5004208;28;20411;-80
2022/09/20 02:10:31;;;;;;;7.15;1.23;;;;;;;10.81;100.00;102080.31;5001563;28;20045;-81
2022/09/20 02:13:11;;;;;;;12.30;2.17;;;;;;;10.83;100.00;102081.22;5017883;28;20053;-81
2022/09/20 02:16:05;;;;;;;9.30;2.45;;;;;;;10.84;100.00;102084.75;5033489;28;20037;-82
2022/09/20 02:18:56;;;;;;;4.88;1.35;;;;;;;10.86;100.00;102089.19;5007765;28;20038;-81
2022/09/20 02:21:41;;;;;;;6.88;1.25;;;;;;;10.90;100.00;102079.59;5024087;28;20037;-81
2022/09/20 02:24:28;;;;;;;7.10;1.45;;;;;;;10.90;100.00;102083.13;4975629;28;20056;-81
2022/09/20 02:27:07;;;;;;;4.93;1.20;;;;;;;10.89;100.00;102081.34;5009514;28;20056;-81
2022/09/20 02:29:59;;;;;;;7.50;1.20;;;;;;;10.86;100.00;102083.91;5000613;28;20072;-80
2022/09/20 02:32:43;;;;;;;7.20;1.13;;;;;;;10.84;100.00;102077.72;5010966;28;20505;-81
2022/09/20 02:35:14;;;;;;;3.33;1.00;;;;;;;10.82;100.00;102084.72;5007100;28;20049;-81
2022/09/20 02:38:01;;;;;;;7.05;1.45;;;;;;;10.79;100.00;102081.13;4987913;28;24813;-81
2022/09/20 02:40:48;;;;;;;;;;;;;;;10.75;100.00;102085.44;5016589;28;20246;-81
2022/09/20 02:43:24;;;;;;;5.28;1.20;;;;;;;10.75;100.00;102081.91;5030369;28;20274;-82
2022/09/20 02:46:31;;;;;;;4.22;1.42;;;;;;;10.72;100.00;102085.38;5001493;28;20046;-82
2022/09/20 02:49:21;;;;;;;6.45;1.25;;;;;;;10.69;100.00;102082.66;4936010;29;20054;-80
2022/09/20 02:51:57;;;;;;;3.65;0.98;;;;;;;10.69;100.00;102082.66;5015277;28;20365;-79
2022/09/20 02:54:56;;;;;;;4.13;1.38;;;;;;;10.66;100.00;102080.84;4977231;28;20045;-80
2022/09/20 02:57:49;;;;;;;3.92;1.20;;;;;;;10.62;100.00;102089.53;5029218;28;20402;-80
2022/09/20 03:00:22;;;;;;;3.67;1.17;;;;;;;10.59;100.00;102078.94;5011904;28;20042;-81
2022/09/20 03:03:29;;;;;;;4.70;1.60;;;;;;;10.54;100.00;102081.44;5033469;28;20481;-80
2022/09/20 03:06:20;;;;;;;4.13;1.10;;;;;;;10.47;100.00;102084.81;5014644;28;20041;-80
2022/09/20 03:09:21;;;;;;;3.00;1.23;;;;;;;10.41;100.00;102079.38;4979166;28;20274;-82
2022/09/20 03:12:06;;;;;;;;;;;;;;;10.37;100.00;102089.81;4998802;28;20172;-82
2022/09/20 03:14:54;;;;;;;5.07;1.45;;;;;;;10.32;100.00;102090.63;5030885;28;20139;-80
2022/09/20 03:17:41;;;;;;;9.50;1.58;;;;;;;10.27;100.00;102092.19;5014826;28;20037;-80
2022/09/20 03:20:33;;;;;;;7.40;1.92;;;;;;;10.20;100.00;102097.28;5006198;28;20050;-80
2022/09/20 03:23:42;;;;;;;9.88;1.98;;;;;;;10.14;100.00;102103.28;5011420;28;20034;-80
2022/09/20 03:26:26;;;;;;;9.90;2.33;;;;;;;10.07;100.00;102102.22;5011634;28;20053;-81
2022/09/20 03:29:20;;;;;;;9.57;1.65;;;;;;;10.01;100.00;102104.72;5003792;28;20057;-81
2022/09/20 03:31:57;;;;;;;6.75;1.88;;;;;;;9.96;100.00;102108.97;5011553;28;20072;-80
2022/09/20 03:34:45;;;;;;;11.77;2.10;;;;;;;9.88;100.00;102102.63;5020490;28;20045;-79
2022/09/20 03:37:39;;;;;;;10.93;1.98;;;;;;;9.80;100.00;102104.16;4990980;28;20402;-82
2022/09/20 03:40:23;;;;;;;10.18;2.20;;;;;;;9.73;100.00;102103.09;4984701;28;20506;-80
2022/09/20 03:42:53;;;;;;;7.75;2.00;;;;;;;9.71;100.00;102105.69;5013873;28;20038;-80
2022/09/20 03:45:36;;;;;;;3.92;1.50;;;;;;;9.66;100.00;102095.88;5009428;28;20065;-80
2022/09/20 03:48:23;;;;;;;10.70;2.35;;;;;;;9.67;100.00;102095.94;5023860;28;20049;-81
2022/09/20 03:51:05;;;;;;;6.90;2.30;;;;;;;9.64;100.00;102092.31;5006212;28;20044;-80
2022/09/20 03:54:00;;;;;;;11.83;3.73;;;;;;;9.58;100.00;102093.03;5001757;28;20510;-80
2022/09/20 03:56:57;;;;;;;5.47;2.15;;;;;;;9.50;100.00;102100.72;4978885;28;20051;-79
2022/09/20 03:59:53;;;;;;;4.95;2.05;;;;;;;9.41;100.00;102097.84;4994043;28;20068;-79
2022/09/20 04:02:49;;;;;;;5.22;1.83;;;;;;;9.33;100.00;102092.38;4994087;28;20045;-80
2022/09/20 04:05:31;;;;;;;6.78;1.98;;;;;;;9.28;100.00;102100.97;5027930;28;20260;-79
2022/09/20 04:08:18;;;;;;;11.20;2.50;;;;;;;9.22;100.00;102104.31;5006145;28;20045;-80
2022/09/20 04:11:14;;;;;;;6.60;2.10;;;;;;;9.15;100.00;102111.16;5030113;28;20394;-81
2022/09/20 04:14:24;;;;;;;6.18;1.98;;;;;;;9.07;100.00;102106.50;5029050;28;20046;-81
2022/09/20 04:17:04;;;;;;;10.25;2.45;;;;;;;8.99;100.00;102103.66;4990054;28;20053;-81
2022/09/20 04:19:52;;;;;;;7.13;2.35;;;;;;;8.92;100.00;102094.72;4993975;28;20640;-80
2022/09/20 04:22:23;;;;;;;9.60;3.20;;;;;;;8.87;100.00;102104.19;5005158;28;20048;-79
2022/09/20 04:24:55;;;;;;;8.70;2.30;;;;;;;8.82;100.00;102103.16;5013321;28;20047;-80
2022/09/20 04:27:40;;;;;;;8.10;1.65;;;;;;;8.76;100.00;102108.22;4989523;28;20041;-79
2022/09/20 04:30:21;;;;;;;8.25;2.03;;;;;;;8.71;100.00;102104.56;5014535;28;20057;-80
2022/09/20 04:33:23;;;;;;;9.70;2.13;;;;;;;8.68;100.00;102104.47;5013015;28;20044;-80
2022/09/20 04:39:22;;;;;;;6.75;2.25;;;;;;;8.65;100.00;102114.88;5013456;28;20502;-82
2022/09/20 04:42:02;;;;;;;4.63;2.17;;;;;;;8.65;100.00;102112.25;5031629;28;20346;-83
2022/09/20 04:44:40;;;;;;;6.55;2.20;;;;;;;8.62;100.00;102110.44;4978381;28;20522;-81
2022/09/20 04:47:37;;;;;;;9.98;2.47;;;;;;;8.61;100.00;102123.53;5016955;28;20057;-81
2022/09/20 04:50:42;;;;;;;7.95;2.13;;;;;;;8.57;100.00;102126.03;5011650;28;20398;-82
2022/09/20 04:54:02;;;;;;;2.33;1.80;;;;;;;8.55;100.00;102124.22;4999411;28;20486;-81
2022/09/20 04:56:56;;;;;;;7.47;2.20;;;;;;;8.49;100.00;102130.16;5019626;28;20044;-81
2022/09/20 04:59:48;;;;;;;9.65;2.13;;;;;;;8.43;100.00;102131.69;4973764;28;20061;-81
2022/09/20 05:02:47;;;;;;;6.63;2.10;;;;;;;8.36;100.00;102134.09;5007183;28;20057;-80
2022/09/20 05:05:34;;;;;;;7.70;2.53;;;;;;;8.34;100.00;102134.88;5008187;28;20096;-81
2022/09/20 05:08:47;;;;;;;6.97;2.10;;;;;;;8.36;100.00;102143.72;5006570;28;20498;-80
2022/09/20 05:11:34;;;;;;;11.10;3.92;;;;;;;8.36;100.00;102144.59;4984946;28;20386;-80
2022/09/20 05:14:35;;;;;;;4.00;2.63;;;;;;;8.38;100.00;102139.41;4993453;28;20056;-81
2022/09/20 05:17:31;;;;;;;5.47;1.90;;;;;;;8.40;100.00;102142.97;5006471;28;20483;-82
2022/09/20 05:20:15;;;;;;;5.75;1.67;;;;;;;8.42;100.00;102137.81;5014250;28;20065;-81
2022/09/20 05:23:15;;;;;;;4.25;2.15;;;;;;;8.45;100.00;102143.13;5017768;28;20057;-81
2022/09/20 05:26:07;;;;;;;2.55;1.70;;;;;;;8.46;100.00;102148.44;5001277;28;20045;-81
2022/09/20 05:28:44;;;;;;;7.20;2.55;;;;;;;8.47;100.00;102141.44;4976693;28;20053;-82
2022/09/20 05:31:39;;;;;;;6.35;2.42;;;;;;;8.49;100.00;102148.56;5043404;28;20057;-82
2022/09/20 05:34:30;;;;;;;6.20;1.88;;;;;;;8.52;100.00;102151.25;5012732;28;20402;-81
2022/09/20 05:37:15;;;;;;;4.70;2.47;;;;;;;8.57;100.00;102151.44;5007835;28;20053;-81
2022/09/20 05:39:46;;;;;;;7.50;2.30;;;;;;;8.62;100.00;102162.06;5011655;28;20046;-82
2022/09/20 05:42:19;;;;;;;12.93;3.15;;;;;;;8.67;100.00;102153.50;5023322;28;20072;-82
2022/09/20 05:45:35;;;;;;;4.03;2.22;;;;;;;8.72;100.00;102154.53;5009627;28;20406;-82
2022/09/20 05:48:23;;;;;;;4.70;2.42;;;;;;;8.79;100.00;102155.66;5007107;28;20054;-82
2022/09/20 05:50:59;;;;;;;7.40;2.47;;;;;;;8.84;100.00;102159.28;5006127;28;20025;-81
2022/09/20 05:53:46;;;;;;;9.85;2.55;;;;;;;8.87;100.00;102151.50;5017959;28;20041;-81
2022/09/20 05:56:21;;;;;;;8.25;2.53;;;;;;;8.90;100.00;102170.00;5016532;28;20037;-82
2022/09/20 05:59:00;;;;;;;7.60;2.15;;;;;;;8.91;100.00;102161.25;5025344;28;20040;-81
2022/09/20 06:01:37;;;;;;;3.85;1.98;;;;;;;8.89;100.00;102168.22;4973412;28;20045;-80
2022/09/20 06:04:18;;;;;;;8.77;2.47;;;;;;;8.87;100.00;102166.41;5039897;28;20048;-82
2022/09/20 06:07:08;;;;;;;11.98;2.53;;;;;;;8.90;100.00;102172.66;5016493;28;20038;-84
2022/09/20 06:09:50;;;;;;;17.27;3.58;;;;;;;8.96;100.00;102180.72;5025526;28;20048;-81
2022/09/20 06:12:22;;;;;;;6.57;2.50;;;;;;;9.02;100.00;102195.78;4999273;28;20395;-81
2022/09/20 06:15:03;;;;;;;6.20;1.73;;;;;;;9.11;100.00;102192.53;5017467;28;20125;-82
2022/09/20 06:17:38;;;;;;;16.73;4.88;;;;;;;9.15;100.00;102190.06;4958850;28;20049;-82
2022/09/20 06:20:17;;;;;;;7.18;2.60;;;;;;;9.21;100.00;102191.97;5024069;28;20394;-81
2022/09/20 06:22:50;;;;;;;6.60;2.80;;;;;;;9.25;100.00;102183.34;5020539;28;20038;-82
2022/09/20 06:25:30;;;;;;;6.88;2.13;;;;;;;9.29;100.00;102194.84;5034165;28;20041;-81
2022/09/20 06:28:07;;;;;;;13.98;2.85;;;;;;;9.31;100.00;102190.50;5040265;28;20049;-81
2022/09/20 06:30:45;;;;;;;4.50;2.33;;;;;;;9.32;100.00;102201.09;5016950;28;20672;-80
2022/09/20 06:33:24;;;;;;;8.32;2.53;;;;;;;9.33;100.00;102202.84;4972467;28;20046;-81
2022/09/20 06:41:25;;;;;;;7.50;2.20;;;;;;;9.35;100.00;102203.78;4999542;28;20041;-82
2022/09/20 06:41:51;;;;;;;6.65;2.42;;;;;;;9.52;100.00;102211.31;5024796;28;20163;-83
2022/09/20 06:44:19;;;;;;;9.75;2.75;;;;;;;9.63;100.00;102209.00;5006159;28;20053;-80
2022/09/20 06:46:47;;;;;;;9.10;2.75;;;;;;;9.72;100.00;102210.13;5002795;28;20057;-83
2022/09/20 06:49:16;;;;;;;10.88;3.05;;;;;;;9.87;100.00;102201.78;4990028;28;20038;-81
2022/09/20 06:51:46;;;;;;;6.60;2.65;;;;;;;10.13;100.00;102202.50;5006377;28;20041;-81
2022/09/20 06:54:18;;;;;;;5.97;1.95;;;;;;;10.70;100.00;102197.81;5023070;28;20049;-81
2022/09/20 06:56:49;;;;;;;8.00;2.17;;;;;;;11.26;100.00;102190.28;5027232;28;20053;-81
2022/09/20 06:59:18;;;;;;;4.40;1.83;;;;;;;11.52;100.00;102195.25;5008580;28;20048;-81
2022/09/20 07:01:46;;;;;;;5.82;1.83;;;;;;;11.53;100.00;102194.41;4989582;28;20058;-83
2022/09/20 07:04:15;;;;;;;6.75;1.63;;;;;;;11.46;100.00;102214.50;4958355;28;20510;-82
2022/09/20 07:06:43;;;;;;;2.28;1.58;;;;;;;11.38;100.00;102210.81;5000755;28;20293;-82
2022/09/20 07:09:12;;;;;;;3.25;1.50;;;;;;;11.31;100.00;102203.59;5013534;28;20588;-82
2022/09/20 07:11:41;;;;;;;10.65;1.85;;;;;;;11.26;100.00;102207.88;5013273;28;20232;-81
2022/09/20 07:14:10;;;;;;;2.75;1.70;;;;;;;11.18;100.00;102214.75;4998093;28;20045;-82
2022/09/20 07:16:38;;;;;;;6.50;1.60;;;;;;;11.11;100.00;102213.69;4996550;28;20045;-82
2022/09/20 07:19:07;;;;;;;6.18;1.50;;;;;;;11.03;100.00;102218.81;4998922;28;20514;-82
2022/09/20 07:21:36;;;;;;;4.03;1.35;;;;;;;11.00;100.00;102216.13;4994650;28;20041;-82
2022/09/20 07:24:04;;;;;;;5.18;1.33;;;;;;;11.00;100.00;102217.84;4986984;28;20049;-82
2022/09/20 07:26:33;;;;;;;5.07;1.40;;;;;;;11.00;100.00;102220.47;5029575;28;20045;-81
2022/09/20 07:29:02;;;;;;;1.95;1.20;;;;;;;11.09;100.00;102220.69;4999546;28;20029;-81
2022/09/20 07:31:30;;;;;;;2.42;1.05;;;;;;;11.38;100.00;102224.00;5017843;28;20410;-81
2022/09/20 07:33:59;;;;;;;6.55;1.88;;;;;;;11.88;100.00;102229.44;4958881;28;20053;-81
2022/09/20 07:36:28;;;;;;;3.50;1.08;;;;;;;12.30;100.00;102230.25;4972899;28;20049;-80
2022/09/20 07:38:56;;;;;;;4.53;1.48;;;;;;;12.76;100.00;102230.13;5005761;28;20034;-82
2022/09/20 07:41:29;;;;;;;3.92;1.30;;;;;;;13.27;100.00;102227.41;4983568;28;20057;-82
2022/09/20 07:44:19;;;;;;;6.13;1.63;;;;;;;13.78;100.00;102235.13;4999208;28;20041;-83
2022/09/20 07:47:05;;;;;;;3.83;1.45;;;;;;;14.41;100.00;102230.53;5020682;28;20255;-79
2022/09/20 07:49:35;;;;;;;5.93;1.13;;;;;;;14.87;100.00;102222.09;4976333;28;21036;-80
2022/09/20 07:52:03;;;;;;;4.30;1.10;;;;;;;15.32;100.00;102225.94;5004602;28;20049;-80
2022/09/20 07:54:32;;;;;;;2.58;1.23;;;;;;;15.85;100.00;102227.09;5003053;28;20038;-83
2022/09/20 07:57:00;;;;;;;3.47;1.63;;;;;;;16.38;100.00;102228.97;5023974;28;20057;-83
2022/09/20 07:59:29;;;;;;;7.03;1.40;;;;;;;16.94;100.00;102224.56;4995867;28;20033;-82
2022/09/20 08:01:59;;;;;;;3.40;0.88;;;;;;;17.38;100.00;102230.69;5001023;28;20045;-84
2022/09/20 08:04:27;;;;;;;2.05;0.70;;;;;;;17.78;100.00;102228.72;4974950;28;20048;-81
2022/09/20 08:06:57;;;;;;;2.35;1.00;;;;;;;18.18;100.00;102233.88;4979228;28;20049;-82
2022/09/20 08:09:26;;;;;;;1.90;0.80;;;;;;;18.53;100.00;102237.22;5023628;28;20049;-83
2022/09/20 08:11:55;;;;;;;3.45;0.70;;;;;;;18.78;100.00;102235.22;5021147;28;20060;-83
2022/09/20 08:14:24;;;;;;;2.92;0.90;;;;;;;18.91;100.00;102244.03;5012711;28;20041;-83
2022/09/20 08:16:53;;;;;;;0.70;0.70;;;;;;;18.91;100.00;102252.94;5035299;28;20053;-83
2022/09/20 08:19:22;;;;;;;1.95;0.80;;;;;;;18.81;100.00;102230.75;4994425;28;20488;-83
2022/09/20 08:21:53;;;;;;;4.43;1.10;;;;;;;18.77;100.00;102246.78;4986840;28;20053;-83
2022/09/20 08:24:21;;;;;;;5.28;1.15;;;;;;;18.74;100.00;102246.81;5023713;28;20064;-84
2022/09/20 08:26:49;;;;;;;2.03;0.80;;;;;;;18.49;100.00;102249.69;5019851;28;20620;-83
2022/09/20 08:29:18;;;;;;;3.50;1.30;;;;;;;18.16;100.00;102251.69;5002406;28;20041;-83
2022/09/20 08:31:47;;;;;;;5.97;1.23;;;;;;;17.82;100.00;102261.59;5014362;28;20915;-83
2022/09/20 08:34:16;;;;;;;1.70;0.88;;;;;;;17.46;100.00;102258.19;5027763;28;20050;-83
2022/09/20 08:36:45;;;;;;;5.43;1.23;;;;;;;17.27;100.00;102255.56;4997946;28;20048;-83
2022/09/20 08:39:15;;;;;;;6.10;1.02;;;;;;;17.23;100.00;102271.56;5022320;28;20056;-83
2022/09/20 08:42:21;;;;;;;2.03;0.73;;;;;;;17.29;100.00;102272.44;5005655;28;20037;-83
2022/09/20 08:44:59;;;;;;;1.92;1.10;;;;;;;17.44;98.66;102266.19;4990343;28;20060;-85
2022/09/20 08:47:32;;;;;;;3.75;1.40;;;;;;;17.62;98.00;102259.03;5025586;28;20052;-83
2022/09/20 08:50:04;;;;;;;1.55;0.68;;;;;;;17.84;96.85;102263.41;5004365;28;20049;-83
2022/09/20 08:52:48;;;;;;;2.42;0.90;;;;;;;18.09;96.31;102269.50;5003818;28;20034;-83
2022/09/20 08:55:23;;;;;;;4.95;1.17;;;;;;;18.18;91.95;102262.34;5024878;28;20053;-83
2022/09/20 08:57:57;;;;;;;3.97;0.95;;;;;;;18.08;89.59;102280.19;5036194;28;20038;-83
2022/09/20 09:00:32;;;;;;;2.42;0.95;;;;;;;17.66;87.80;102275.00;5023768;28;20029;-83
2022/09/20 09:03:10;;;;;;;2.30;0.90;;;;;;;17.13;88.70;102276.03;5031922;28;20038;-83
2022/09/20 09:05:49;;;;;;;1.73;0.95;;;;;;;16.64;89.97;102276.88;5007799;28;20057;-83
2022/09/20 09:08:20;;;;;;;2.83;0.98;;;;;;;16.11;90.87;102283.00;5000218;28;20042;-83
2022/09/20 09:11:15;;;;;;;3.35;1.02;;;;;;;15.79;93.53;102281.09;5039067;28;20058;-82
2022/09/20 09:14:46;;;;;;;3.63;1.10;;;;;;;15.56;94.50;102286.28;5019382;28;20271;-82
2022/09/20 09:16:59;;;;;;;3.65;1.10;;;;;;;15.51;95.11;102280.03;5027774;28;20037;-81
2022/09/20 09:19:45;;;;;;;3.55;0.73;;;;;;;15.49;93.21;102293.31;5013368;28;20418;-83
2022/09/20 09:22:34;;;;;;;1.75;1.10;;;;;;;15.32;91.71;102293.22;4995588;28;20070;-80
2022/09/20 09:25:23;;;;;;;3.40;1.33;;;;;;;15.14;91.58;102301.03;5038337;28;20033;-83
2022/09/20 09:27:56;;;;;;;5.03;0.90;;;;;;;14.93;93.00;102307.06;5040980;28;20171;-82
2022/09/20 09:30:31;;;;;;;3.63;0.85;;;;;;;14.70;91.83;102305.09;5023434;28;20177;-83
2022/09/20 09:33:24;;;;;;;2.65;1.00;;;;;;;14.60;92.62;102314.75;5020364;28;20045;-81
2022/09/20 09:36:14;;;;;;;2.05;0.98;;;;;;;14.56;92.81;102309.38;5022195;28;20052;-82
2022/09/20 09:38:45;;;;;;;1.33;1.10;;;;;;;14.53;93.41;102309.31;4973894;28;20450;-82
2022/09/20 09:41:16;;;;;;;;;;;;;;;14.49;94.88;102312.81;5009532;28;20045;-82
2022/09/20 09:43:58;;;;;;;4.63;1.10;;;;;;;14.43;94.37;102305.69;5023795;28;19921;-82
2022/09/20 09:46:31;;;;;;;4.05;1.00;;;;;;;14.39;95.90;102307.41;5035017;28;20054;-81
2022/09/20 09:49:32;;;;;;;1.90;0.90;;;;;;;14.41;97.40;102312.75;5014969;28;20378;-82
2022/09/20 09:52:14;;;;;;;1.45;0.93;;;;;;;14.44;97.49;102304.81;5021784;28;20045;-80
2022/09/20 09:54:53;;;;;;;2.50;0.82;;;;;;;14.46;97.32;102300.44;4974554;28;20054;-84
2022/09/20 09:57:36;;;;;;;2.38;0.95;;;;;;;14.52;98.92;102307.56;5000215;28;20046;-82
2022/09/20 10:00:13;;;;;;;3.92;0.90;;;;;;;14.55;98.31;102296.97;5025141;28;20041;-83
2022/09/20 10:03:09;;;;;;;4.68;1.10;;;;;;;14.55;97.82;102299.63;5030166;28;20251;-82
2022/09/20 10:06:12;;;;;;;3.38;1.10;;;;;;;14.61;97.82;102299.69;4983722;28;20171;-83
2022/09/20 10:09:30;;;;;;;2.67;1.50;;;;;;;14.69;97.70;102298.03;5000276;28;23171;-82
2022/09/20 10:12:22;;;;;;;4.75;1.92;;;;;;;14.84;98.29;102299.03;5001249;28;20465;-84
2022/09/20 10:14:53;;;;;;;2.92;0.88;;;;;;;14.97;98.53;102298.25;5042124;28;20155;-83
2022/09/20 10:17:54;;;;;;;5.95;1.60;;;;;;;15.10;97.82;102300.13;5007932;28;20041;-83
2022/09/20 10:20:26;;;;;;;3.42;0.95;;;;;;;15.21;97.94;102294.91;5007993;28;20125;-81
2022/09/20 10:23:16;;;;;;;2.63;1.00;;;;;;;15.33;96.93;102294.09;5022041;28;20066;-82
2022/09/20 10:26:52;;;;;;;5.50;1.42;;;;;;;15.45;96.53;102298.63;5009006;28;20061;-83
2022/09/20 10:29:29;;;;;;;6.40;1.10;;;;;;;15.53;96.57;102289.78;5028495;28;20048;-83
2022/09/20 10:32:02;;;;;;;3.83;1.25;;;;;;;15.64;97.17;102295.16;4997245;28;20060;-86
2022/09/20 10:34:56;;;;;;;7.10;1.27;;;;;;;15.69;94.50;102295.19;4994401;28;20478;-84
2022/09/20 10:37:54;;;;;;;2.58;0.80;;;;;;;15.73;94.32;102294.34;5017958;28;20021;-83
2022/09/20 10:44:03;;;;;;;3.83;0.95;;;;;;;15.86;95.42;102297.94;5016088;28;20045;-84
2022/09/20 10:47:02;;;;;;;5.22;1.30;;;;;;;15.86;94.18;102301.53;5037367;28;20049;-83
2022/09/20 10:49:52;;;;;;;5.75;0.98;;;;;;;15.91;93.74;102296.22;5033406;28;20025;-84
2022/09/20 10:52:43;;;;;;;2.00;1.20;;;;;;;15.94;93.42;102299.78;5004738;28;20032;-82
2022/09/20 10:55:24;;;;;;;4.75;1.00;;;;;;;16.02;93.05;102296.25;4977046;28;22185;-81
2022/09/20 10:57:56;;;;;;;;;;;;;;;16.13;91.15;102291.88;5012897;28;20050;-83
2022/09/20 11:00:59;;;;;;;6.82;1.55;;;;;;;16.29;91.98;102288.34;4994783;28;20397;-82
2022/09/20 11:04:00;;;;;;;3.20;1.05;;;;;;;16.47;92.12;102282.19;5013931;28;20037;-83
2022/09/20 11:06:32;;;;;;;7.00;1.00;;;;;;;16.57;88.35;102296.38;5005519;28;21724;-80
2022/09/20 11:09:01;;;;;;;2.63;1.27;;;;;;;16.48;84.06;102299.03;5012805;28;20037;-81
2022/09/20 11:11:39;;;;;;;5.57;1.10;;;;;;;16.35;83.45;102296.38;4966521;28;20037;-81
2022/09/20 11:14:28;;;;;;;7.65;1.33;;;;;;;16.16;78.12;102302.50;5006508;28;20179;-81
2022/09/20 11:17:18;;;;;;;6.40;1.13;;;;;;;16.08;77.58;102299.81;4997899;28;20041;-81
2022/09/20 11:19:55;;;;;;;3.80;0.93;;;;;;;16.04;80.70;102298.03;5016203;28;20469;-81
2022/09/20 11:23:11;;;;;;;4.80;0.90;;;;;;;16.09;80.31;102306.03;4999975;28;20030;-83
2022/09/20 11:25:58;;;;;;;2.40;1.20;;;;;;;16.16;80.32;102303.41;4959239;28;20064;-82
2022/09/20 11:28:47;;;;;;;4.28;0.90;;;;;;;16.21;79.41;102299.88;5007045;28;20236;-79
2022/09/20 11:31:34;;;;;;;3.45;0.90;;;;;;;16.25;79.60;102302.53;5012090;28;20045;-82
2022/09/20 11:34:47;;;;;;;6.32;1.30;;;;;;;16.33;72.54;102306.13;5015343;28;20046;-81
2022/09/20 11:37:17;;;;;;;7.80;1.42;;;;;;;16.45;81.70;102299.94;4960792;28;20061;-81
2022/09/20 11:39:48;;;;;;;6.75;1.30;;;;;;;16.43;84.09;102300.81;5007169;28;20041;-81
2022/09/20 11:42:27;;;;;;;5.72;1.30;;;;;;;16.29;83.99;102314.06;4970149;28;20049;-80
2022/09/20 11:44:55;;;;;;;2.92;1.20;;;;;;;16.07;86.62;102314.00;5011610;28;20048;-82
2022/09/20 11:47:32;;;;;;;6.80;1.52;;;;;;;15.88;88.37;102315.69;4969439;28;22439;-80
2022/09/20 11:50:50;;;;;;;3.50;1.23;;;;;;;15.75;89.98;102308.56;5027014;28;20671;-81
2022/09/20 11:53:27;;;;;;;3.55;1.27;;;;;;;15.56;89.04;102316.38;4994183;28;20557;-80
2022/09/20 11:56:36;;;;;;;5.97;1.23;;;;;;;15.40;89.74;102314.50;4987809;28;20076;-80
2022/09/20 11:59:21;;;;;;;2.78;0.98;;;;;;;15.28;91.13;102317.09;5011660;28;20129;-81
2022/09/20 12:01:55;;;;;;;2.40;0.85;;;;;;;15.16;90.63;102326.75;5013988;28;20037;-80
2022/09/20 12:04:28;;;;;;;6.40;1.45;;;;;;;15.07;91.29;102316.03;4993538;28;20045;-81
2022/09/20 12:07:05;;;;;;;6.78;1.10;;;;;;;15.03;91.50;102330.19;5013230;28;20057;-81
2022/09/20 12:09:42;;;;;;;6.88;1.33;;;;;;;15.08;91.12;102317.81;5003516;28;20058;-81
2022/09/20 12:12:36;;;;;;;6.72;0.90;;;;;;;15.19;88.97;102320.56;4982654;28;20044;-81
2022/09/20 12:15:25;;;;;;;4.05;0.95;;;;;;;15.30;89.13;102312.69;4965370;28;20046;-81
2022/09/20 12:18:01;;;;;;;3.33;0.90;;;;;;;15.36;89.00;102310.06;4980150;28;20170;-81
2022/09/20 12:20:37;;;;;;;6.65;1.20;;;;;;;15.40;88.59;102317.16;4980335;28;20208;-81
2022/09/20 12:23:39;;;;;;;6.13;1.80;;;;;;;15.49;86.33;102317.22;4977322;28;20042;-80
2022/09/20 12:26:21;;;;;;;2.13;0.82;;;;;;;15.66;85.13;102317.31;4978830;28;20050;-81
2022/09/20 12:28:49;;;;;;;3.25;0.85;;;;;;;15.73;84.49;102320.91;4926354;28;20042;-81
2022/09/20 12:31:21;;;;;;;4.13;0.70;;;;;;;15.77;82.61;102314.75;4969290;28;20115;-81
2022/09/20 12:34:11;;;;;;;1.83;0.70;;;;;;;15.81;82.89;102316.56;4972104;28;20046;-80
2022/09/20 12:36:45;;;;;;;4.85;0.88;;;;;;;15.88;81.84;102321.03;4939215;28;20635;-80
2022/09/20 12:39:26;;;;;;;2.25;0.77;;;;;;;15.95;82.86;102316.59;4968290;28;20431;-79
2022/09/20 12:41:59;;;;;;;3.38;0.60;;;;;;;16.01;82.11;102318.41;4951616;28;20077;-81